Time;durP1;ratioP1;P1;durP2;ratioP2;P2;SDS_P1;SDS_P2;PMS_P1;PMS_P2;Temp;Humidity;BMP_temperature;BMP_pressure;BME280_temperature;BME280_humidity;BME280_pressure;Samples;Min_cycle;Max_cycle;Signal;HPM_P1;HPM_P2
2023/12/20 00:02:05;;;;;;;5.80;2.20;;;;;;;;;;5019568;28;20405;-83
2023/12/20 00:04:30;;;;;;;2.83;2.40;;;;;;;;;;5017804;28;20044;-81
2023/12/20 00:06:55;;;;;;;2.85;2.45;;;;;;;;;;5017948;28;20089;-83
2023/12/20 00:09:20;;;;;;;2.25;2.05;;;;;;;;;;5018513;28;20374;-81
2023/12/20 00:11:46;;;;;;;2.45;2.08;;;;;;;;;;5019028;28;20036;-82
2023/12/20 00:14:11;;;;;;;5.60;2.15;;;;;;;;;;5027295;28;20052;-82
2023/12/20 00:16:36;;;;;;;4.22;2.40;;;;;;;;;;5017983;28;20041;-80
2023/12/20 00:19:02;;;;;;;9.30;2.78;;;;;;;;;;5000656;28;20084;-82
2023/12/20 00:21:27;;;;;;;3.00;2.30;;;;;;;;;;5000264;28;20101;-83
2023/12/20 00:23:52;;;;;;;2.88;2.15;;;;;;;;;;5019035;28;20026;-79
2023/12/20 00:26:17;;;;;;;2.95;2.58;;;;;;;;;;5018116;28;20050;-83
2023/12/20 00:28:43;;;;;;;3.35;2.53;;;;;;;;;;5018042;28;20495;-84
2023/12/20 00:31:08;;;;;;;3.03;2.28;;;;;;;;;;5001475;28;20038;-81
2023/12/20 00:33:33;;;;;;;4.40;1.92;;;;;;;;;;5001384;28;20037;-82
2023/12/20 00:35:59;;;;;;;2.83;2.17;;;;;;;;;;5019232;28;20057;-84
2023/12/20 00:38:24;;;;;;;5.15;2.47;;;;;;;;;;5018313;28;20406;-83
2023/12/20 00:40:49;;;;;;;2.00;1.80;;;;;;;;;;5018594;28;20034;-83
2023/12/20 00:43:15;;;;;;;2.10;1.90;;;;;;;;;;5018034;28;20034;-82
2023/12/20 00:45:40;;;;;;;3.25;2.40;;;;;;;;;;5017725;28;20088;-83
2023/12/20 00:48:06;;;;;;;2.15;1.83;;;;;;;;;;5018013;28;20026;-80
2023/12/20 00:50:31;;;;;;;2.75;2.10;;;;;;;;;;5002453;28;20630;-83
2023/12/20 00:52:56;;;;;;;2.45;2.03;;;;;;;;;;5018000;28;20030;-82
2023/12/20 00:55:21;;;;;;;4.72;1.50;;;;;;;;;;5018089;28;20041;-79
2023/12/20 00:57:47;;;;;;;1.88;1.73;;;;;;;;;;5017673;28;20301;-83
2023/12/20 01:00:13;;;;;;;2.90;2.28;;;;;;;;;;5018023;28;20026;-83
2023/12/20 01:02:38;;;;;;;2.30;2.10;;;;;;;;;;5018189;28;20041;-82
2023/12/20 01:05:04;;;;;;;2.28;1.95;;;;;;;;;;5019094;28;20119;-84
2023/12/20 01:07:29;;;;;;;3.13;1.67;;;;;;;;;;5001777;28;20080;-82
2023/12/20 01:09:54;;;;;;;2.42;1.92;;;;;;;;;;5020568;28;20546;-83
2023/12/20 01:12:20;;;;;;;1.98;1.85;;;;;;;;;;5019883;28;20045;-82
2023/12/20 01:14:45;;;;;;;2.10;1.70;;;;;;;;;;5005152;28;20108;-83
2023/12/20 01:17:12;;;;;;;2.50;1.95;;;;;;;;;;5020209;28;20395;-83
2023/12/20 01:19:37;;;;;;;2.60;1.92;;;;;;;;;;5003454;28;20101;-81
2023/12/20 01:22:03;;;;;;;2.00;1.67;;;;;;;;;;5001572;28;20077;-82
2023/12/20 01:24:28;;;;;;;1.60;1.50;;;;;;;;;;5025705;28;20030;-81
2023/12/20 01:26:53;;;;;;;2.40;1.67;;;;;;;;;;5019480;28;20037;-83
2023/12/20 01:29:19;;;;;;;2.15;1.42;;;;;;;;;;5018655;28;20061;-83
2023/12/20 01:31:44;;;;;;;3.13;1.73;;;;;;;;;;4999564;28;20099;-81
2023/12/20 01:34:10;;;;;;;1.60;1.50;;;;;;;;;;4999169;28;20413;-81
2023/12/20 01:36:35;;;;;;;1.55;1.33;;;;;;;;;;5017389;28;20030;-83
2023/12/20 01:39:01;;;;;;;1.38;1.27;;;;;;;;;;5018161;28;20022;-84
2023/12/20 01:41:26;;;;;;;1.77;1.67;;;;;;;;;;5018446;28;20509;-79
2023/12/20 01:43:53;;;;;;;1.65;1.55;;;;;;;;;;5018112;28;20053;-83
2023/12/20 01:46:19;;;;;;;1.77;1.55;;;;;;;;;;5016811;28;20568;-81
2023/12/20 01:48:45;;;;;;;1.92;1.75;;;;;;;;;;5017891;28;20405;-83
2023/12/20 01:51:11;;;;;;;2.03;1.48;;;;;;;;;;5017086;28;20057;-83
2023/12/20 01:53:36;;;;;;;3.60;1.70;;;;;;;;;;5017843;28;20040;-80
2023/12/20 01:56:02;;;;;;;1.58;1.48;;;;;;;;;;5017246;28;20041;-82
2023/12/20 01:58:27;;;;;;;1.30;1.20;;;;;;;;;;5017823;28;20092;-82
2023/12/20 02:00:55;;;;;;;2.60;1.75;;;;;;;;;;5017957;28;20081;-83
2023/12/20 02:03:21;;;;;;;1.40;1.30;;;;;;;;;;5018060;28;20022;-83
2023/12/20 02:05:47;;;;;;;1.58;1.48;;;;;;;;;;5018656;28;20043;-83
2023/12/20 02:08:13;;;;;;;3.80;1.40;;;;;;;;;;5021681;28;20033;-82
2023/12/20 02:10:40;;;;;;;1.40;1.30;;;;;;;;;;5022507;28;20105;-81
2023/12/20 02:13:05;;;;;;;1.48;1.38;;;;;;;;;;5001773;28;20041;-84
2023/12/20 02:15:31;;;;;;;5.88;1.40;;;;;;;;;;5018639;28;20034;-82
2023/12/20 02:17:56;;;;;;;1.15;1.05;;;;;;;;;;5019097;28;20089;-83
2023/12/20 02:20:21;;;;;;;1.42;1.20;;;;;;;;;;5016533;28;20049;-82
2023/12/20 02:22:47;;;;;;;0.93;0.93;;;;;;;;;;5016875;28;20111;-83
2023/12/20 02:25:12;;;;;;;1.55;1.45;;;;;;;;;;4998357;28;20056;-83
2023/12/20 02:27:39;;;;;;;1.70;1.60;;;;;;;;;;5016901;28;20566;-83
2023/12/20 02:30:05;;;;;;;1.48;1.38;;;;;;;;;;5021282;28;20046;-81
2023/12/20 02:32:31;;;;;;;1.73;1.08;;;;;;;;;;5003184;28;20044;-81
2023/12/20 02:34:56;;;;;;;1.38;1.27;;;;;;;;;;5020851;28;20375;-83
2023/12/20 02:37:21;;;;;;;1.50;1.40;;;;;;;;;;5020630;28;20042;-83
2023/12/20 02:39:47;;;;;;;1.42;1.33;;;;;;;;;;5021101;28;20053;-81
2023/12/20 02:42:12;;;;;;;1.70;1.30;;;;;;;;;;5020051;28;20366;-81
2023/12/20 02:44:37;;;;;;;1.33;1.30;;;;;;;;;;5021020;28;20030;-83
2023/12/20 02:47:03;;;;;;;1.73;1.40;;;;;;;;;;5020330;28;20038;-83
2023/12/20 02:49:28;;;;;;;1.67;1.33;;;;;;;;;;5019952;28;20472;-83
2023/12/20 02:51:54;;;;;;;4.57;1.50;;;;;;;;;;5020245;28;20621;-82
2023/12/20 02:54:19;;;;;;;4.43;1.77;;;;;;;;;;5002071;28;20036;-83
2023/12/20 02:56:44;;;;;;;1.55;1.30;;;;;;;;;;5020498;28;20149;-83
2023/12/20 02:59:10;;;;;;;1.73;1.38;;;;;;;;;;5002028;28;20065;-83
2023/12/20 03:01:37;;;;;;;1.60;1.20;;;;;;;;;;5019546;28;20042;-82
2023/12/20 03:04:03;;;;;;;1.45;1.20;;;;;;;;;;5020681;28;20034;-84
2023/12/20 03:06:28;;;;;;;1.00;1.00;;;;;;;;;;5002129;28;20038;-81
2023/12/20 03:08:53;;;;;;;1.10;1.10;;;;;;;;;;5020861;28;20047;-82
2023/12/20 03:11:19;;;;;;;1.23;1.13;;;;;;;;;;5019184;28;20066;-82
2023/12/20 03:13:44;;;;;;;1.30;1.20;;;;;;;;;;5020140;28;20042;-83
2023/12/20 03:16:13;;;;;;;1.10;1.10;;;;;;;;;;5002633;28;20050;-83
2023/12/20 03:18:39;;;;;;;2.22;1.40;;;;;;;;;;5002179;28;20026;-82
2023/12/20 03:21:05;;;;;;;1.40;1.30;;;;;;;;;;5019753;28;20037;-82
2023/12/20 03:23:32;;;;;;;1.10;1.10;;;;;;;;;;5019755;28;20140;-79
2023/12/20 03:25:57;;;;;;;1.30;1.20;;;;;;;;;;5019087;28;20108;-83
2023/12/20 03:28:23;;;;;;;1.67;1.25;;;;;;;;;;5001531;28;20127;-83
2023/12/20 03:30:48;;;;;;;2.00;1.38;;;;;;;;;;5019530;28;20034;-82
2023/12/20 03:33:14;;;;;;;1.38;1.27;;;;;;;;;;5019643;28;20438;-83
2023/12/20 03:35:39;;;;;;;1.33;1.23;;;;;;;;;;5019271;28;20053;-82
2023/12/20 03:38:04;;;;;;;1.23;1.13;;;;;;;;;;5019045;28;20038;-83
2023/12/20 03:40:30;;;;;;;1.50;1.40;;;;;;;;;;5018335;28;20069;-82
2023/12/20 03:42:55;;;;;;;1.73;1.17;;;;;;;;;;5018523;28;20045;-81
2023/12/20 03:45:20;;;;;;;1.42;1.33;;;;;;;;;;5018264;28;20037;-83
2023/12/20 03:47:45;;;;;;;1.40;1.30;;;;;;;;;;5019746;28;20119;-82
2023/12/20 03:50:11;;;;;;;2.78;1.85;;;;;;;;;;5018848;28;20042;-81
2023/12/20 03:52:36;;;;;;;1.73;1.52;;;;;;;;;;5001407;28;20233;-83
2023/12/20 03:55:01;;;;;;;1.83;1.35;;;;;;;;;;5019131;28;20049;-82
2023/12/20 03:57:27;;;;;;;2.13;1.45;;;;;;;;;;5018057;28;20044;-83
2023/12/20 03:59:52;;;;;;;1.27;1.17;;;;;;;;;;5026757;22;20049;-77
2023/12/20 04:02:17;;;;;;;1.23;1.17;;;;;;;;;;5040184;28;20049;-78
2023/12/20 04:04:43;;;;;;;1.95;1.35;;;;;;;;;;5051306;28;20106;-77
2023/12/20 04:07:08;;;;;;;1.67;1.58;;;;;;;;;;5049508;28;20112;-79
2023/12/20 04:09:33;;;;;;;2.33;1.40;;;;;;;;;;5039729;28;20029;-78
2023/12/20 04:11:59;;;;;;;1.73;1.63;;;;;;;;;;5050265;28;20051;-78
2023/12/20 04:14:24;;;;;;;3.85;1.80;;;;;;;;;;5054128;28;20115;-79
2023/12/20 04:16:50;;;;;;;2.53;2.03;;;;;;;;;;5047696;28;20121;-79
2023/12/20 04:19:15;;;;;;;1.83;1.38;;;;;;;;;;5021738;28;20416;-79
2023/12/20 04:21:40;;;;;;;2.85;1.98;;;;;;;;;;5053624;28;20036;-79
2023/12/20 04:24:06;;;;;;;4.68;2.28;;;;;;;;;;5050439;28;20090;-78
2023/12/20 04:26:31;;;;;;;2.42;2.22;;;;;;;;;;5037594;28;20105;-79
2023/12/20 04:28:56;;;;;;;3.35;2.17;;;;;;;;;;5029360;28;20456;-78
2023/12/20 04:31:22;;;;;;;2.17;2.00;;;;;;;;;;5034900;28;20037;-79
2023/12/20 04:33:47;;;;;;;1.83;1.48;;;;;;;;;;5054043;28;20037;-78
2023/12/20 04:36:12;;;;;;;1.70;1.60;;;;;;;;;;5054675;28;20111;-78
2023/12/20 04:38:38;;;;;;;1.50;1.40;;;;;;;;;;5054826;28;20021;-78
2023/12/20 04:41:03;;;;;;;1.50;1.40;;;;;;;;;;5054844;28;20044;-78
2023/12/20 04:43:29;;;;;;;1.95;1.48;;;;;;;;;;5054693;28;20183;-78
2023/12/20 04:45:55;;;;;;;4.65;1.60;;;;;;;;;;5054291;28;20029;-78
2023/12/20 04:48:20;;;;;;;1.70;1.60;;;;;;;;;;5054621;28;20043;-78
2023/12/20 04:50:45;;;;;;;2.40;1.88;;;;;;;;;;5054362;28;20036;-78
2023/12/20 04:53:10;;;;;;;7.38;1.88;;;;;;;;;;5036087;28;20037;-78
2023/12/20 04:55:36;;;;;;;2.47;2.03;;;;;;;;;;5053745;28;20044;-78
2023/12/20 04:58:01;;;;;;;2.75;2.05;;;;;;;;;;5048733;28;20049;-78
2023/12/20 05:00:27;;;;;;;2.13;1.65;;;;;;;;;;5050378;28;20037;-78
2023/12/20 05:02:52;;;;;;;1.77;1.67;;;;;;;;;;5054386;28;20028;-78
2023/12/20 05:05:17;;;;;;;1.88;1.60;;;;;;;;;;5035929;28;20029;-78
2023/12/20 05:07:43;;;;;;;2.50;1.73;;;;;;;;;;5052223;28;20032;-79
2023/12/20 05:10:09;;;;;;;2.17;2.00;;;;;;;;;;5046074;28;20034;-79
2023/12/20 05:12:34;;;;;;;1.73;1.63;;;;;;;;;;5049930;28;20029;-79
2023/12/20 05:15:00;;;;;;;3.75;1.45;;;;;;;;;;5053180;28;20495;-79
2023/12/20 05:17:25;;;;;;;1.70;1.60;;;;;;;;;;5049579;28;20041;-79
2023/12/20 05:19:51;;;;;;;4.13;2.20;;;;;;;;;;5034486;28;20038;-79
2023/12/20 05:22:17;;;;;;;2.65;2.28;;;;;;;;;;5034533;28;20037;-79
2023/12/20 05:24:42;;;;;;;2.35;1.90;;;;;;;;;;5033025;28;20545;-79
2023/12/20 05:27:07;;;;;;;2.20;2.00;;;;;;;;;;5041557;28;20020;-79
2023/12/20 05:29:33;;;;;;;4.13;2.58;;;;;;;;;;5052774;28;20025;-80
2023/12/20 05:31:58;;;;;;;3.08;2.20;;;;;;;;;;5046346;28;20033;-80
2023/12/20 05:34:23;;;;;;;2.92;2.20;;;;;;;;;;5036044;28;20124;-79
2023/12/20 05:36:49;;;;;;;2.30;2.05;;;;;;;;;;5048358;28;20543;-79
2023/12/20 05:39:14;;;;;;;5.72;2.35;;;;;;;;;;5040900;28;20025;-79
2023/12/20 05:41:39;;;;;;;3.13;1.85;;;;;;;;;;5055130;28;20507;-79
2023/12/20 05:44:05;;;;;;;2.50;2.30;;;;;;;;;;5053470;28;20037;-78
2023/12/20 05:46:30;;;;;;;2.38;1.65;;;;;;;;;;5051861;28;20040;-78
2023/12/20 05:48:55;;;;;;;2.15;2.05;;;;;;;;;;5051374;28;20047;-78
2023/12/20 05:51:21;;;;;;;1.85;1.75;;;;;;;;;;5022758;28;20441;-78
2023/12/20 05:53:46;;;;;;;1.58;1.48;;;;;;;;;;5042862;28;20029;-78
2023/12/20 05:56:11;;;;;;;1.52;1.42;;;;;;;;;;5032320;28;20033;-78
2023/12/20 05:58:38;;;;;;;1.83;1.73;;;;;;;;;;5048074;28;20108;-78
2023/12/20 06:01:04;;;;;;;1.77;1.67;;;;;;;;;;5050447;28;20041;-78
2023/12/20 06:03:30;;;;;;;1.92;1.50;;;;;;;;;;5052777;28;20041;-78
2023/12/20 06:05:55;;;;;;;2.50;1.83;;;;;;;;;;5051467;28;20496;-78
2023/12/20 06:08:21;;;;;;;1.90;1.80;;;;;;;;;;5032055;28;20091;-78
2023/12/20 06:10:46;;;;;;;1.60;1.50;;;;;;;;;;5054959;28;20424;-78
2023/12/20 06:13:13;;;;;;;1.75;1.65;;;;;;;;;;5049106;28;20393;-77
2023/12/20 06:15:38;;;;;;;1.35;1.27;;;;;;;;;;5051687;28;20188;-78
2023/12/20 06:18:04;;;;;;;1.70;1.60;;;;;;;;;;5036481;28;20214;-77
2023/12/20 06:20:29;;;;;;;1.70;1.60;;;;;;;;;;5034370;28;20021;-78
2023/12/20 06:22:55;;;;;;;1.88;1.73;;;;;;;;;;5053458;28;20060;-78
2023/12/20 06:25:20;;;;;;;1.52;1.42;;;;;;;;;;5050166;28;20120;-78
2023/12/20 06:27:45;;;;;;;1.77;1.52;;;;;;;;;;5055382;28;20040;-78
2023/12/20 06:30:17;;;;;;;1.42;1.30;;;;;;;;;;5039405;28;20033;-78
2023/12/20 06:32:42;;;;;;;1.40;1.25;;;;;;;;;;5054929;28;20032;-78
2023/12/20 06:35:08;;;;;;;1.90;1.80;;;;;;;;;;5047110;28;20607;-78
2023/12/20 06:37:34;;;;;;;1.70;1.58;;;;;;;;;;5047008;28;20091;-78
2023/12/20 06:39:59;;;;;;;2.13;1.92;;;;;;;;;;5051725;28;20441;-78
2023/12/20 06:42:24;;;;;;;1.60;1.50;;;;;;;;;;5042645;28;20619;-78
2023/12/20 06:44:50;;;;;;;1.90;1.80;;;;;;;;;;5049026;28;20041;-78
2023/12/20 06:47:15;;;;;;;1.00;1.00;;;;;;;;;;5048292;28;20037;-78
2023/12/20 06:49:40;;;;;;;1.80;1.65;;;;;;;;;;5038310;28;20037;-78
2023/12/20 06:52:06;;;;;;;2.05;1.75;;;;;;;;;;5049129;28;20116;-78
2023/12/20 06:54:31;;;;;;;1.95;1.60;;;;;;;;;;5045243;28;20047;-77
2023/12/20 06:56:56;;;;;;;2.28;2.00;;;;;;;;;;5053933;28;20448;-78
2023/12/20 06:59:22;;;;;;;2.20;1.92;;;;;;;;;;5035540;28;20036;-77
2023/12/20 07:01:50;;;;;;;3.30;2.58;;;;;;;;;;5048775;28;20401;-78
2023/12/20 07:04:16;;;;;;;1.77;1.67;;;;;;;;;;5038927;28;20040;-78
2023/12/20 07:06:41;;;;;;;1.80;1.70;;;;;;;;;;5047897;28;20175;-78
2023/12/20 07:09:07;;;;;;;2.58;2.38;;;;;;;;;;5046912;28;20056;-78
2023/12/20 07:11:32;;;;;;;1.75;1.52;;;;;;;;;;5042500;28;20064;-78
2023/12/20 07:13:57;;;;;;;1.45;1.40;;;;;;;;;;5052472;28;20048;-78
2023/12/20 07:16:22;;;;;;;2.08;1.40;;;;;;;;;;5054700;28;20033;-78
2023/12/20 07:18:48;;;;;;;1.70;1.60;;;;;;;;;;5048996;28;20030;-78
2023/12/20 07:21:13;;;;;;;1.50;1.40;;;;;;;;;;5048221;28;20044;-77
2023/12/20 07:23:38;;;;;;;1.65;1.50;;;;;;;;;;5024699;28;20029;-78
2023/12/20 07:26:04;;;;;;;1.33;1.23;;;;;;;;;;5025851;28;20036;-78
2023/12/20 07:28:29;;;;;;;1.50;1.40;;;;;;;;;;5054773;28;20037;-78
2023/12/20 07:30:55;;;;;;;1.35;1.30;;;;;;;;;;5054472;28;20025;-78
2023/12/20 07:33:20;;;;;;;1.83;1.73;;;;;;;;;;5054530;28;20185;-77
2023/12/20 07:35:45;;;;;;;2.38;1.30;;;;;;;;;;5054520;28;20025;-78
2023/12/20 07:38:12;;;;;;;1.30;1.20;;;;;;;;;;5038223;28;20052;-78
2023/12/20 07:40:37;;;;;;;1.40;1.30;;;;;;;;;;5049447;28;20116;-78
2023/12/20 07:43:03;;;;;;;1.25;1.25;;;;;;;;;;5054155;28;20049;-78
2023/12/20 07:45:28;;;;;;;1.27;1.27;;;;;;;;;;5041803;28;20033;-78
2023/12/20 07:47:54;;;;;;;1.95;1.27;;;;;;;;;;5053350;28;20029;-78
2023/12/20 07:50:19;;;;;;;1.35;1.25;;;;;;;;;;5053757;28;20155;-78
2023/12/20 07:52:44;;;;;;;1.80;1.70;;;;;;;;;;5053610;28;20044;-78
2023/12/20 07:55:10;;;;;;;1.85;1.13;;;;;;;;;;5044530;28;20091;-78
2023/12/20 07:57:35;;;;;;;1.20;1.13;;;;;;;;;;5024314;28;20519;-78
2023/12/20 08:00:00;;;;;;;1.33;1.23;;;;;;;;;;5054102;28;20032;-78
2023/12/20 08:02:26;;;;;;;1.80;1.05;;;;;;;;;;5049828;28;20061;-78
2023/12/20 08:04:51;;;;;;;1.00;1.00;;;;;;;;;;5052307;28;20393;-78
2023/12/20 08:07:16;;;;;;;1.42;1.13;;;;;;;;;;5035913;28;20127;-78
2023/12/20 08:09:43;;;;;;;1.17;1.08;;;;;;;;;;5051167;28;20396;-78
2023/12/20 08:12:09;;;;;;;0.82;0.82;;;;;;;;;;5045600;28;20115;-78
2023/12/20 08:14:35;;;;;;;0.70;0.70;;;;;;;;;;5028420;28;20045;-78
2023/12/20 08:17:00;;;;;;;0.98;0.98;;;;;;;;;;5050406;28;20045;-78
2023/12/20 08:19:25;;;;;;;0.82;0.82;;;;;;;;;;5053888;28;20036;-79
2023/12/20 08:21:51;;;;;;;0.98;0.98;;;;;;;;;;5053374;28;20033;-78
2023/12/20 08:24:16;;;;;;;0.70;0.70;;;;;;;;;;5048625;28;20021;-78
2023/12/20 08:26:41;;;;;;;0.70;0.70;;;;;;;;;;5052966;28;20021;-78
2023/12/20 08:29:07;;;;;;;0.80;0.80;;;;;;;;;;5035468;28;20033;-78
2023/12/20 08:31:32;;;;;;;3.55;0.80;;;;;;;;;;5053654;28;20025;-78
2023/12/20 08:33:57;;;;;;;0.80;0.80;;;;;;;;;;5053483;28;20029;-78
2023/12/20 08:36:23;;;;;;;0.90;0.90;;;;;;;;;;5050076;28;20059;-78
2023/12/20 08:38:49;;;;;;;0.75;0.70;;;;;;;;;;5050374;28;20485;-78
2023/12/20 08:41:14;;;;;;;0.80;0.80;;;;;;;;;;5052715;28;20045;-78
2023/12/20 08:43:40;;;;;;;0.98;0.98;;;;;;;;;;5047934;28;20163;-78
2023/12/20 08:46:06;;;;;;;1.85;0.70;;;;;;;;;;5030226;28;20044;-78
2023/12/20 08:48:31;;;;;;;1.38;0.90;;;;;;;;;;5035482;28;20535;-78
2023/12/20 08:50:56;;;;;;;0.90;0.90;;;;;;;;;;5048678;28;20036;-78
2023/12/20 08:53:22;;;;;;;0.70;0.70;;;;;;;;;;5047983;28;20056;-78
2023/12/20 08:55:47;;;;;;;0.70;0.70;;;;;;;;;;5053075;28;20067;-78
2023/12/20 08:58:13;;;;;;;0.68;0.68;;;;;;;;;;5053199;28;20037;-78
2023/12/20 09:00:38;;;;;;;1.05;0.93;;;;;;;;;;5052526;28;20033;-78
2023/12/20 09:03:04;;;;;;;0.60;0.60;;;;;;;;;;5053244;28;20508;-78
2023/12/20 09:05:30;;;;;;;0.68;0.68;;;;;;;;;;5050751;28;20104;-78
2023/12/20 09:07:55;;;;;;;0.70;0.70;;;;;;;;;;5052742;28;20124;-78
2023/12/20 09:10:22;;;;;;;1.08;0.80;;;;;;;;;;5052276;28;20400;-78
2023/12/20 09:12:54;;;;;;;0.60;0.60;;;;;;;;;;5044224;28;20429;-78
2023/12/20 09:15:19;;;;;;;0.50;0.50;;;;;;;;;;5030461;28;20032;-78
2023/12/20 09:17:44;;;;;;;0.50;0.50;;;;;;;;;;5055672;28;20476;-78
2023/12/20 09:20:10;;;;;;;1.40;0.73;;;;;;;;;;5033408;28;20501;-77
2023/12/20 09:22:35;;;;;;;0.57;0.57;;;;;;;;;;5046101;28;20042;-77
2023/12/20 09:25:01;;;;;;;0.75;0.75;;;;;;;;;;5034056;28;20037;-77
2023/12/20 09:27:27;;;;;;;0.50;0.50;;;;;;;;;;5045933;28;20386;-76
2023/12/20 09:29:53;;;;;;;0.60;0.60;;;;;;;;;;5045659;28;20033;-77
2023/12/20 09:32:20;;;;;;;0.85;0.50;;;;;;;;;;5042720;28;20056;-77
2023/12/20 09:34:45;;;;;;;0.60;0.60;;;;;;;;;;5050673;28;20033;-77
2023/12/20 09:37:10;;;;;;;0.50;0.50;;;;;;;;;;5041308;28;20096;-78
2023/12/20 09:39:36;;;;;;;0.70;0.70;;;;;;;;;;5039147;28;20086;-78
2023/12/20 09:42:03;;;;;;;0.60;0.60;;;;;;;;;;5051800;28;20028;-78
2023/12/20 09:44:29;;;;;;;0.50;0.50;;;;;;;;;;5047553;28;20056;-78
2023/12/20 09:46:55;;;;;;;0.77;0.77;;;;;;;;;;5041503;28;20041;-78
2023/12/20 09:49:21;;;;;;;0.82;0.70;;;;;;;;;;5042431;28;20155;-79
2023/12/20 09:51:47;;;;;;;0.57;0.57;;;;;;;;;;5045062;28;20036;-77
2023/12/20 09:54:15;;;;;;;0.60;0.60;;;;;;;;;;5050935;28;20033;-77
2023/12/20 09:56:40;;;;;;;0.50;0.50;;;;;;;;;;5052244;28;20032;-77
2023/12/20 09:59:06;;;;;;;0.70;0.70;;;;;;;;;;5051398;28;20112;-77
2023/12/20 10:01:32;;;;;;;0.50;0.50;;;;;;;;;;5065614;23;20045;-82
2023/12/20 10:04:00;;;;;;;0.93;0.73;;;;;;;;;;5016593;28;20097;-80
2023/12/20 10:06:25;;;;;;;0.50;0.50;;;;;;;;;;5015751;28;20029;-82
2023/12/20 10:08:50;;;;;;;0.70;0.70;;;;;;;;;;5016579;28;20018;-80
2023/12/20 10:11:16;;;;;;;0.93;0.80;;;;;;;;;;5008357;28;20319;-81
2023/12/20 10:13:43;;;;;;;0.70;0.70;;;;;;;;;;4992773;28;20124;-81
2023/12/20 10:16:08;;;;;;;0.70;0.70;;;;;;;;;;4990502;28;20045;-83
2023/12/20 10:18:33;;;;;;;0.70;0.70;;;;;;;;;;4996757;28;20034;-82
2023/12/20 10:21:00;;;;;;;0.60;0.60;;;;;;;;;;5004835;28;20018;-81
2023/12/20 10:23:25;;;;;;;0.68;0.68;;;;;;;;;;4992322;28;20023;-82
2023/12/20 10:26:00;;;;;;;0.77;0.77;;;;;;;;;;4991598;28;20037;-82
2023/12/20 10:28:27;;;;;;;0.70;0.70;;;;;;;;;;4980924;28;20038;-81
2023/12/20 10:30:54;;;;;;;2.75;0.70;;;;;;;;;;4993584;28;20168;-82
2023/12/20 10:33:32;;;;;;;0.60;0.60;;;;;;;;;;4989850;28;20444;-82
2023/12/20 10:35:57;;;;;;;0.75;0.70;;;;;;;;;;5009330;28;20032;-81
2023/12/20 10:38:23;;;;;;;2.38;0.70;;;;;;;;;;4995283;28;20449;-82
2023/12/20 10:40:52;;;;;;;0.63;0.63;;;;;;;;;;5009958;28;20034;-82
2023/12/20 10:43:18;;;;;;;0.60;0.60;;;;;;;;;;4992132;28;20041;-82
2023/12/20 10:45:44;;;;;;;0.70;0.70;;;;;;;;;;5011901;28;20042;-81
2023/12/20 10:48:11;;;;;;;0.60;0.60;;;;;;;;;;4993480;28;20032;-81
2023/12/20 10:50:40;;;;;;;0.68;0.68;;;;;;;;;;4995468;28;20049;-79
2023/12/20 10:53:06;;;;;;;0.82;0.82;;;;;;;;;;5008191;28;20045;-81
2023/12/20 10:55:33;;;;;;;1.17;0.77;;;;;;;;;;5016603;28;20045;-81
2023/12/20 10:58:04;;;;;;;2.30;0.98;;;;;;;;;;5016843;28;20045;-82
2023/12/20 11:00:31;;;;;;;0.73;0.70;;;;;;;;;;5015881;28;20034;-82
2023/12/20 11:03:00;;;;;;;0.52;0.52;;;;;;;;;;4991856;28;20108;-81
2023/12/20 11:05:59;;;;;;;0.60;0.60;;;;;;;;;;4997395;28;20026;-81
2023/12/20 11:09:08;;;;;;;0.80;0.80;;;;;;;;;;4993562;28;20034;-82
2023/12/20 11:11:41;;;;;;;0.77;0.77;;;;;;;;;;4998747;28;20121;-80
2023/12/20 11:14:12;;;;;;;2.38;1.02;;;;;;;;;;4993508;28;20167;-81
2023/12/20 11:16:38;;;;;;;0.73;0.73;;;;;;;;;;4996585;28;20101;-80
2023/12/20 11:19:07;;;;;;;0.88;0.88;;;;;;;;;;5010695;28;20054;-84
2023/12/20 11:21:32;;;;;;;0.80;0.80;;;;;;;;;;4987847;28;20034;-81
2023/12/20 11:23:58;;;;;;;0.82;0.82;;;;;;;;;;4991169;28;20103;-83
2023/12/20 11:26:28;;;;;;;0.90;0.90;;;;;;;;;;4993122;28;20042;-81
2023/12/20 11:28:54;;;;;;;0.88;0.88;;;;;;;;;;4998048;28;20474;-80
2023/12/20 11:31:19;;;;;;;0.95;0.93;;;;;;;;;;5014604;28;20038;-83
2023/12/20 11:33:48;;;;;;;1.48;0.80;;;;;;;;;;5012908;28;20030;-80
2023/12/20 11:36:15;;;;;;;0.68;0.68;;;;;;;;;;5004319;28;20038;-81
2023/12/20 11:38:56;;;;;;;0.70;0.70;;;;;;;;;;5009958;28;20033;-81
2023/12/20 11:41:24;;;;;;;0.93;0.93;;;;;;;;;;4996939;28;20209;-81
2023/12/20 11:43:53;;;;;;;1.08;1.08;;;;;;;;;;5011560;28;20046;-82
2023/12/20 11:46:18;;;;;;;0.90;0.90;;;;;;;;;;5002989;28;20097;-82
2023/12/20 11:48:44;;;;;;;1.70;1.17;;;;;;;;;;4994824;28;20088;-82
2023/12/20 11:51:11;;;;;;;0.95;0.95;;;;;;;;;;4998256;28;20025;-82
2023/12/20 11:53:36;;;;;;;0.80;0.80;;;;;;;;;;5016506;28;20022;-81
2023/12/20 11:56:03;;;;;;;0.77;0.77;;;;;;;;;;5010192;28;20042;-82
2023/12/20 11:58:29;;;;;;;1.02;1.02;;;;;;;;;;4989348;28;20428;-80
2023/12/20 12:00:55;;;;;;;1.08;1.08;;;;;;;;;;4991221;28;20044;-81
2023/12/20 12:03:20;;;;;;;0.90;0.90;;;;;;;;;;4996175;28;20077;-81
2023/12/20 12:05:47;;;;;;;1.27;1.17;;;;;;;;;;4995432;28;20022;-81
2023/12/20 12:08:12;;;;;;;0.82;0.82;;;;;;;;;;4990857;28;20038;-81
2023/12/20 12:10:38;;;;;;;0.90;0.90;;;;;;;;;;4998134;28;20034;-79
2023/12/20 12:13:03;;;;;;;0.82;0.80;;;;;;;;;;5015351;28;20038;-80
2023/12/20 12:15:29;;;;;;;1.15;1.10;;;;;;;;;;5015396;28;20034;-82
2023/12/20 12:17:59;;;;;;;0.80;0.80;;;;;;;;;;4994171;28;20554;-80
2023/12/20 12:20:24;;;;;;;2.25;1.33;;;;;;;;;;5012813;28;20040;-80
2023/12/20 12:23:03;;;;;;;1.17;1.13;;;;;;;;;;4997664;28;20138;-80
2023/12/20 12:25:30;;;;;;;1.25;1.25;;;;;;;;;;4991518;28;20093;-80
2023/12/20 12:27:56;;;;;;;1.40;1.30;;;;;;;;;;4995169;28;20041;-81
2023/12/20 12:30:21;;;;;;;1.60;1.50;;;;;;;;;;4990850;28;20085;-80
2023/12/20 12:32:47;;;;;;;1.33;1.23;;;;;;;;;;5009163;28;20022;-79
2023/12/20 12:35:14;;;;;;;1.55;1.45;;;;;;;;;;5007021;28;20100;-80
2023/12/20 12:37:40;;;;;;;1.05;1.05;;;;;;;;;;4998570;28;20034;-78
2023/12/20 12:40:10;;;;;;;0.95;0.95;;;;;;;;;;4981024;28;20372;-80
2023/12/20 12:42:36;;;;;;;3.90;1.50;;;;;;;;;;4994927;28;20137;-83
2023/12/20 12:45:02;;;;;;;1.17;1.17;;;;;;;;;;5015826;28;20033;-81
2023/12/20 12:47:27;;;;;;;1.65;1.55;;;;;;;;;;4996548;28;20321;-80
2023/12/20 12:49:53;;;;;;;1.50;1.40;;;;;;;;;;4996557;28;20401;-81
2023/12/20 12:52:18;;;;;;;1.45;1.35;;;;;;;;;;4998163;28;20478;-81
2023/12/20 12:54:44;;;;;;;1.10;1.10;;;;;;;;;;4997715;28;20092;-80
2023/12/20 12:57:11;;;;;;;2.25;1.50;;;;;;;;;;5014743;28;20076;-81
2023/12/20 12:59:37;;;;;;;1.58;1.48;;;;;;;;;;4997392;28;20097;-81
2023/12/20 13:02:02;;;;;;;1.58;1.48;;;;;;;;;;4995878;28;20121;-81
2023/12/20 13:04:27;;;;;;;2.63;2.05;;;;;;;;;;4993338;28;20048;-81
2023/12/20 13:06:53;;;;;;;3.33;2.28;;;;;;;;;;4991528;28;20038;-80
2023/12/20 13:09:19;;;;;;;1.65;1.55;;;;;;;;;;4996701;28;20026;-80
2023/12/20 13:11:45;;;;;;;2.97;2.22;;;;;;;;;;5007691;28;20160;-80
2023/12/20 13:14:15;;;;;;;1.92;1.77;;;;;;;;;;5014108;28;20030;-80
2023/12/20 13:16:41;;;;;;;2.38;2.03;;;;;;;;;;4995995;28;20056;-81
2023/12/20 13:19:06;;;;;;;1.80;1.70;;;;;;;;;;4996633;28;20059;-81
2023/12/20 13:21:31;;;;;;;1.92;1.75;;;;;;;;;;4996865;28;20212;-82
2023/12/20 13:23:57;;;;;;;2.15;1.45;;;;;;;;;;4989815;28;20049;-79
2023/12/20 13:26:22;;;;;;;1.33;1.30;;;;;;;;;;5005150;28;20432;-81
2023/12/20 13:28:47;;;;;;;0.80;0.80;;;;;;;;;;5004714;28;20046;-81
2023/12/20 13:31:13;;;;;;;1.40;1.30;;;;;;;;;;5006809;28;20121;-82
2023/12/20 13:33:39;;;;;;;1.15;1.08;;;;;;;;;;4996353;28;20498;-82
2023/12/20 13:36:05;;;;;;;0.95;0.95;;;;;;;;;;5014932;28;20030;-82
2023/12/20 13:38:30;;;;;;;1.55;1.45;;;;;;;;;;4996623;28;20018;-81
2023/12/20 13:40:55;;;;;;;1.38;1.27;;;;;;;;;;4997311;28;20053;-82
2023/12/20 13:43:21;;;;;;;1.50;1.40;;;;;;;;;;5008499;28;20048;-82
2023/12/20 13:45:48;;;;;;;1.13;1.10;;;;;;;;;;4998131;28;20022;-81
2023/12/20 13:48:13;;;;;;;1.58;1.45;;;;;;;;;;4996371;28;20042;-78
2023/12/20 13:50:38;;;;;;;1.35;1.25;;;;;;;;;;4992614;28;20049;-81
2023/12/20 13:53:04;;;;;;;1.52;1.42;;;;;;;;;;5012325;28;20117;-80
2023/12/20 13:55:30;;;;;;;2.33;1.50;;;;;;;;;;4996452;28;20065;-81
2023/12/20 13:57:55;;;;;;;1.60;1.50;;;;;;;;;;5014228;28;20497;-82
2023/12/20 14:00:21;;;;;;;2.55;1.45;;;;;;;;;;4995500;28;20125;-81
2023/12/20 14:02:47;;;;;;;1.52;1.42;;;;;;;;;;5014434;28;20029;-81
2023/12/20 14:05:14;;;;;;;1.50;1.40;;;;;;;;;;4993894;28;20636;-81
2023/12/20 14:07:39;;;;;;;1.80;1.65;;;;;;;;;;4996822;28;20057;-82
2023/12/20 14:10:06;;;;;;;1.55;1.42;;;;;;;;;;5014354;28;20096;-80
2023/12/20 14:12:35;;;;;;;1.38;1.17;;;;;;;;;;5014654;28;20046;-83
2023/12/20 14:15:01;;;;;;;1.58;1.48;;;;;;;;;;4997121;28;20026;-83
2023/12/20 14:17:26;;;;;;;1.38;1.20;;;;;;;;;;4985725;28;20023;-81
2023/12/20 14:19:51;;;;;;;1.50;1.40;;;;;;;;;;5013751;28;20061;-81
2023/12/20 14:22:17;;;;;;;0.80;0.75;;;;;;;;;;4981039;28;20045;-81
2023/12/20 14:24:42;;;;;;;2.10;1.90;;;;;;;;;;4993772;28;20038;-79
2023/12/20 14:27:09;;;;;;;1.67;1.58;;;;;;;;;;5016427;28;20025;-81
2023/12/20 14:29:34;;;;;;;4.90;3.65;;;;;;;;;;4994055;28;20260;-82
2023/12/20 14:32:02;;;;;;;3.03;2.72;;;;;;;;;;5001567;28;20104;-81
2023/12/20 14:34:28;;;;;;;3.20;2.90;;;;;;;;;;4995409;28;20055;-81
2023/12/20 14:36:53;;;;;;;2.30;2.10;;;;;;;;;;5018149;28;20132;-82